Time;durP1;ratioP1;P1;durP2;ratioP2;P2;SDS_P1;SDS_P2;PMS_P1;PMS_P2;Temp;Humidity;BMP_temperature;BMP_pressure;BME280_temperature;BME280_humidity;BME280_pressure;Samples;Min_cycle;Max_cycle;Signal;HPM_P1;HPM_P2
2022/07/23 00:01:01;;;;;;;9.02;8.10;;;;;;;24.23;53.55;95301.28;4998964;28;20203;-63
2022/07/23 00:03:28;;;;;;;14.38;7.47;;;;;;;24.54;52.83;95301.31;5000745;28;20218;-62
2022/07/23 00:05:55;;;;;;;13.60;8.70;;;;;;;24.72;51.94;95307.56;5001343;28;20677;-62
2022/07/23 00:08:23;;;;;;;10.23;8.30;;;;;;;24.69;52.33;95310.41;4999435;28;20240;-62
2022/07/23 00:10:50;;;;;;;9.32;7.32;;;;;;;24.62;52.30;95312.69;5000390;28;20203;-63
2022/07/23 00:13:17;;;;;;;7.72;6.93;;;;;;;24.70;52.47;95309.47;5000612;28;20696;-63
2022/07/23 00:15:43;;;;;;;9.52;8.45;;;;;;;24.73;52.30;95309.19;5000291;28;20203;-63
2022/07/23 00:18:10;;;;;;;38.90;26.45;;;;;;;24.70;52.63;95309.47;4997344;28;20215;-64
2022/07/23 00:20:37;;;;;;;11.63;7.82;;;;;;;24.59;53.02;95307.75;4999738;28;20214;-63
2022/07/23 00:23:04;;;;;;;9.80;7.03;;;;;;;24.51;52.49;95310.19;5000769;28;20638;-63
2022/07/23 00:25:32;;;;;;;10.30;7.18;;;;;;;24.50;52.68;95307.75;5000722;28;20211;-63
2022/07/23 00:27:59;;;;;;;7.95;6.68;;;;;;;24.33;52.97;95312.56;4999756;28;20264;-63
2022/07/23 00:30:26;;;;;;;7.55;6.82;;;;;;;24.24;52.45;95312.50;4997945;28;20254;-63
2022/07/23 00:32:56;;;;;;;7.18;6.47;;;;;;;24.24;52.41;95313.34;4999523;28;20213;-64
2022/07/23 00:35:23;;;;;;;11.80;6.88;;;;;;;24.27;52.49;95312.25;4998569;28;20202;-63
2022/07/23 00:37:50;;;;;;;8.35;6.50;;;;;;;24.24;52.41;95315.94;4997438;28;20207;-63
2022/07/23 00:40:17;;;;;;;10.32;6.30;;;;;;;24.17;52.38;95316.53;4998968;28;20195;-62
2022/07/23 00:42:45;;;;;;;9.55;7.45;;;;;;;23.82;53.36;95312.47;5001082;28;20651;-63
2022/07/23 00:45:12;;;;;;;11.05;7.07;;;;;;;24.05;53.12;95308.00;4999930;28;20302;-63
2022/07/23 00:47:39;;;;;;;18.15;7.78;;;;;;;24.19;53.03;95309.44;4999412;28;20215;-62
2022/07/23 00:50:08;;;;;;;11.15;6.95;;;;;;;24.08;53.01;95312.94;4999901;28;20300;-63
2022/07/23 00:52:37;;;;;;;10.38;6.88;;;;;;;23.87;53.55;95310.34;5000192;28;20276;-62
2022/07/23 00:55:04;;;;;;;11.13;6.93;;;;;;;23.54;54.70;95313.91;5000619;28;21116;-62
2022/07/23 00:57:32;;;;;;;12.85;6.85;;;;;;;23.51;54.39;95308.91;4999044;28;20211;-63
2022/07/23 01:00:00;;;;;;;10.52;6.68;;;;;;;23.53;54.45;95316.59;4999604;28;20199;-63
2022/07/23 01:02:27;;;;;;;8.75;6.30;;;;;;;23.54;54.58;95313.91;4999165;28;20238;-62
2022/07/23 01:04:54;;;;;;;8.73;6.68;;;;;;;23.74;54.09;95314.91;4998942;28;20296;-63
2022/07/23 01:07:22;;;;;;;10.75;7.30;;;;;;;23.94;53.88;95310.66;4998660;28;20210;-62
2022/07/23 01:09:50;;;;;;;7.22;6.53;;;;;;;23.88;54.15;95313.75;4999213;28;20301;-62
2022/07/23 01:12:17;;;;;;;8.93;6.63;;;;;;;23.86;53.93;95307.88;4999079;28;21409;-62
2022/07/23 01:14:43;;;;;;;8.30;6.97;;;;;;;23.94;53.56;95310.66;5000779;28;20211;-62
2022/07/23 01:17:12;;;;;;;7.25;6.47;;;;;;;23.79;54.21;95311.91;4996539;28;20214;-63
2022/07/23 01:19:38;;;;;;;11.48;6.80;;;;;;;23.81;54.47;95310.81;4997456;28;20270;-63
2022/07/23 01:22:05;;;;;;;9.57;7.18;;;;;;;23.78;54.58;95310.25;4996794;28;20213;-63
2022/07/23 01:24:34;;;;;;;7.07;6.43;;;;;;;23.80;54.37;95308.34;4999743;28;22050;-64
2022/07/23 01:27:00;;;;;;;7.20;6.50;;;;;;;23.85;54.09;95306.22;5000457;28;20202;-63
2022/07/23 01:29:27;;;;;;;8.38;5.88;;;;;;;23.88;53.68;95308.56;4999563;28;20231;-64
2022/07/23 01:31:54;;;;;;;9.45;6.88;;;;;;;23.91;53.19;95309.13;4999035;28;20270;-63
2022/07/23 01:34:21;;;;;;;6.40;5.90;;;;;;;23.88;53.38;95311.16;4998864;28;20273;-63
2022/07/23 01:36:47;;;;;;;10.75;6.90;;;;;;;24.02;52.51;95303.03;4998226;28;20207;-64
2022/07/23 01:39:14;;;;;;;7.03;5.32;;;;;;;24.17;52.03;95301.78;4999470;28;20286;-63
2022/07/23 01:41:42;;;;;;;8.32;6.60;;;;;;;24.27;51.80;95296.66;4997988;28;20199;-63
2022/07/23 01:44:09;;;;;;;9.02;6.05;;;;;;;24.37;51.21;95308.75;4999524;28;20253;-62
2022/07/23 01:46:36;;;;;;;7.50;5.88;;;;;;;24.52;51.01;95301.44;4998371;28;20681;-64
2022/07/23 01:49:03;;;;;;;8.00;6.80;;;;;;;24.51;50.51;95299.78;4999165;28;20276;-62
2022/07/23 01:51:29;;;;;;;7.53;6.82;;;;;;;24.54;50.62;95299.53;4996901;28;20581;-63
2022/07/23 01:53:56;;;;;;;7.97;6.50;;;;;;;24.46;50.75;95301.16;4998647;28;20765;-63
2022/07/23 01:56:23;;;;;;;9.02;5.88;;;;;;;24.41;50.31;95304.97;4999776;28;20261;-63
2022/07/23 01:58:51;;;;;;;6.88;6.35;;;;;;;24.09;51.18;95304.19;4998795;28;20206;-63
2022/07/23 02:01:18;;;;;;;12.23;6.05;;;;;;;23.85;52.15;95299.25;4998052;28;20232;-63
2022/07/23 02:03:45;;;;;;;7.57;6.45;;;;;;;23.76;52.44;95304.41;4993754;28;20234;-63
2022/07/23 02:06:12;;;;;;;12.45;6.35;;;;;;;23.80;52.55;95304.00;4997629;28;20231;-64
2022/07/23 02:08:38;;;;;;;7.22;6.38;;;;;;;23.98;51.89;95309.47;4998839;28;20211;-62
2022/07/23 02:11:05;;;;;;;6.10;5.60;;;;;;;24.01;51.68;95301.41;5000401;28;20273;-63
2022/07/23 02:13:32;;;;;;;6.55;5.93;;;;;;;23.84;52.65;95301.97;4999685;28;21111;-63
2022/07/23 02:16:00;;;;;;;17.63;7.47;;;;;;;23.91;52.45;95306.53;4998909;28;22502;-63
2022/07/23 02:18:27;;;;;;;11.23;6.70;;;;;;;23.95;51.77;95307.94;4999667;28;21843;-62
2022/07/23 02:20:54;;;;;;;6.65;6.05;;;;;;;24.14;51.23;95312.44;4999714;28;20673;-62
2022/07/23 02:23:21;;;;;;;8.98;7.47;;;;;;;24.24;50.89;95305.56;4999079;28;20588;-62
2022/07/23 02:25:48;;;;;;;7.65;6.70;;;;;;;24.28;50.61;95304.31;4998938;28;20230;-62
2022/07/23 02:28:15;;;;;;;18.80;15.15;;;;;;;24.16;50.72;95310.53;4998339;28;20274;-63
2022/07/23 02:30:41;;;;;;;15.32;11.27;;;;;;;24.00;51.32;95302.38;4998901;28;20242;-63
2022/07/23 02:33:09;;;;;;;9.70;8.65;;;;;;;24.04;51.37;95306.34;4999962;28;20207;-62
2022/07/23 02:35:36;;;;;;;9.55;7.38;;;;;;;24.10;50.97;95308.44;4997716;28;20268;-62
2022/07/23 02:38:03;;;;;;;7.65;6.65;;;;;;;24.12;50.75;95303.94;4999266;28;20207;-62
2022/07/23 02:40:30;;;;;;;7.55;6.57;;;;;;;23.91;51.50;95310.91;4997703;28;21162;-62
2022/07/23 02:42:57;;;;;;;13.98;7.43;;;;;;;23.92;51.19;95310.78;4999521;28;20207;-62
2022/07/23 02:45:24;;;;;;;9.07;6.43;;;;;;;23.98;51.50;95312.06;4999255;28;20290;-62
2022/07/23 02:47:50;;;;;;;13.75;6.18;;;;;;;23.79;51.82;95317.09;5002940;28;20243;-63
2022/07/23 02:50:19;;;;;;;6.90;6.15;;;;;;;23.60;52.02;95313.41;5000588;28;20234;-62
2022/07/23 02:52:45;;;;;;;8.95;6.55;;;;;;;23.70;52.00;95316.91;5001104;28;20721;-63
2022/07/23 02:55:12;;;;;;;6.75;5.78;;;;;;;23.68;52.16;95321.41;5000341;28;22526;-62
2022/07/23 02:57:39;;;;;;;8.02;7.15;;;;;;;23.60;51.79;95321.19;4999089;28;20280;-63
2022/07/23 03:00:07;;;;;;;12.85;6.85;;;;;;;23.57;51.97;95329.22;5001557;28;20203;-62
2022/07/23 03:02:34;;;;;;;7.40;6.70;;;;;;;23.52;52.21;95340.88;5001101;28;20210;-63
2022/07/23 03:05:01;;;;;;;9.77;7.05;;;;;;;23.47;52.62;95336.06;5001789;28;20293;-63
2022/07/23 03:07:29;;;;;;;7.97;6.05;;;;;;;23.25;52.97;95336.16;5003231;28;20281;-62
2022/07/23 03:09:56;;;;;;;7.78;6.75;;;;;;;23.39;52.54;95344.47;5002643;28;20647;-62
2022/07/23 03:12:23;;;;;;;12.10;7.03;;;;;;;23.49;52.40;95334.19;5004338;28;20277;-62
2022/07/23 03:14:49;;;;;;;7.25;6.72;;;;;;;23.54;52.60;95339.00;5001529;28;20258;-63
2022/07/23 03:17:16;;;;;;;10.60;6.40;;;;;;;23.45;52.71;95343.16;5002706;28;20215;-62
2022/07/23 03:19:43;;;;;;;7.30;6.70;;;;;;;23.54;52.23;95339.00;4999816;28;20294;-62
2022/07/23 03:22:10;;;;;;;7.57;6.75;;;;;;;23.63;52.25;95346.06;5002362;28;20230;-63
2022/07/23 03:24:56;;;;;;;10.25;6.97;;;;;;;23.68;51.98;95347.34;5002686;28;22623;-63
2022/07/23 03:27:25;;;;;;;9.73;6.80;;;;;;;23.46;52.49;95341.38;5002747;28;20605;-62
2022/07/23 03:29:52;;;;;;;7.85;7.13;;;;;;;23.24;53.58;95357.84;5002745;28;20616;-64
2022/07/23 03:32:19;;;;;;;8.70;7.05;;;;;;;22.94;54.36;95356.69;5002852;28;20206;-62
2022/07/23 03:34:46;;;;;;;8.02;7.32;;;;;;;23.18;54.01;95359.13;4999591;28;20211;-65
2022/07/23 03:37:13;;;;;;;7.63;6.93;;;;;;;23.55;52.82;95356.22;5001952;28;20218;-63
2022/07/23 03:39:41;;;;;;;11.73;7.60;;;;;;;24.02;51.73;95354.97;5001894;28;21403;-63
2022/07/23 03:42:08;;;;;;;6.80;6.15;;;;;;;24.61;50.32;95364.81;5003059;28;20211;-62
2022/07/23 03:44:36;;;;;;;26.33;7.53;;;;;;;25.03;49.00;95357.75;4999820;28;20199;-63
2022/07/23 03:47:03;;;;;;;9.80;6.75;;;;;;;25.39;48.13;95359.78;5001273;28;21030;-63
2022/07/23 03:49:30;;;;;;;7.38;6.75;;;;;;;25.20;48.60;95354.53;5000028;28;20231;-63
2022/07/23 03:51:57;;;;;;;7.22;6.55;;;;;;;25.13;48.67;95358.63;4998146;28;20226;-63
2022/07/23 03:54:24;;;;;;;10.63;6.63;;;;;;;25.05;48.59;95358.44;5002272;28;20244;-63
2022/07/23 03:56:52;;;;;;;6.72;6.07;;;;;;;25.33;47.83;95359.47;5000479;28;20207;-64
2022/07/23 03:59:19;;;;;;;8.15;6.47;;;;;;;25.55;46.98;95355.81;4999022;28;20256;-63
2022/07/23 04:01:45;;;;;;;6.43;5.80;;;;;;;25.45;47.26;95361.03;4999281;28;20523;-63
2022/07/23 04:04:12;;;;;;;8.93;6.90;;;;;;;24.90;48.10;95352.75;4999783;28;20726;-63
2022/07/23 04:06:39;;;;;;;8.43;6.28;;;;;;;24.53;49.34;95359.41;5000855;28;20333;-62
2022/07/23 04:09:06;;;;;;;8.95;7.13;;;;;;;24.35;50.25;95354.00;4999927;28;20296;-63
2022/07/23 04:11:32;;;;;;;10.55;5.80;;;;;;;24.08;51.05;95364.84;5000273;28;20241;-64
2022/07/23 04:14:01;;;;;;;6.55;5.90;;;;;;;24.53;49.49;95364.63;5001269;28;20203;-63
2022/07/23 04:16:28;;;;;;;7.55;6.50;;;;;;;24.86;48.85;95361.78;5000351;28;20204;-63
2022/07/23 04:18:55;;;;;;;8.85;6.18;;;;;;;25.20;48.20;95361.50;5002193;28;20209;-63
2022/07/23 04:21:22;;;;;;;15.82;7.10;;;;;;;25.47;47.21;95372.13;4999402;28;20218;-63
2022/07/23 04:23:48;;;;;;;10.85;6.57;;;;;;;25.58;47.24;95366.78;4999000;28;20208;-62
2022/07/23 04:26:15;;;;;;;12.30;7.05;;;;;;;25.59;47.05;95376.22;5000198;28;20210;-63
2022/07/23 04:28:43;;;;;;;10.80;7.20;;;;;;;25.84;46.57;95359.28;5000508;28;20248;-63
2022/07/23 04:31:11;;;;;;;7.97;6.57;;;;;;;25.67;46.87;95366.00;4998533;28;20238;-63
2022/07/23 04:33:38;;;;;;;9.65;6.60;;;;;;;25.76;46.72;95372.97;5000617;28;20253;-63
2022/07/23 04:36:05;;;;;;;9.80;6.28;;;;;;;25.81;46.85;95361.34;5001018;28;20212;-63
2022/07/23 04:38:32;;;;;;;10.88;7.22;;;;;;;25.97;46.70;95369.44;4997396;28;20244;-64
2022/07/23 04:40:59;;;;;;;9.45;7.40;;;;;;;26.16;45.69;95374.63;4999817;28;20271;-65
2022/07/23 04:43:26;;;;;;;12.43;7.50;;;;;;;26.40;45.30;95369.84;5000236;28;20211;-64
2022/07/23 04:45:53;;;;;;;10.00;7.63;;;;;;;26.36;45.19;95368.47;5000207;28;20207;-64
2022/07/23 04:48:21;;;;;;;7.47;6.82;;;;;;;26.49;45.36;95375.97;5000230;28;20228;-62
2022/07/23 04:50:48;;;;;;;11.05;7.68;;;;;;;26.66;44.80;95377.03;4999162;28;20243;-64
2022/07/23 04:53:15;;;;;;;10.02;7.70;;;;;;;26.61;45.01;95379.25;4997089;28;20210;-64
2022/07/23 04:55:42;;;;;;;8.63;6.63;;;;;;;26.53;45.60;95377.34;5001112;28;20261;-64
2022/07/23 04:58:09;;;;;;;8.05;7.35;;;;;;;26.43;45.66;95377.38;4999861;28;20215;-63
2022/07/23 05:00:35;;;;;;;10.40;7.10;;;;;;;26.42;45.69;95373.13;4997706;28;20204;-64
2022/07/23 05:03:02;;;;;;;11.23;8.05;;;;;;;26.47;45.65;95369.28;4999009;28;20226;-63
2022/07/23 05:05:31;;;;;;;11.60;6.93;;;;;;;26.67;45.45;95371.69;5000105;28;20227;-63
2022/07/23 05:07:57;;;;;;;11.02;7.07;;;;;;;26.09;46.61;95368.31;4998644;28;20665;-63
2022/07/23 05:10:24;;;;;;;10.10;7.93;;;;;;;26.02;47.33;95372.44;4997563;28;20231;-63
2022/07/23 05:12:51;;;;;;;13.30;7.53;;;;;;;25.80;47.91;95364.91;4999468;28;20297;-65
2022/07/23 05:15:18;;;;;;;10.27;7.65;;;;;;;26.48;46.09;95379.53;4999656;28;20571;-63
2022/07/23 05:17:44;;;;;;;11.10;7.72;;;;;;;26.98;44.88;95377.50;4999814;28;20324;-64
2022/07/23 05:20:11;;;;;;;15.02;8.48;;;;;;;27.70;43.29;95374.13;4999568;28;20206;-65
2022/07/23 05:22:40;;;;;;;12.80;7.40;;;;;;;27.93;43.48;95371.06;4995564;28;20696;-64
2022/07/23 05:25:07;;;;;;;15.07;7.50;;;;;;;29.10;40.61;95375.81;4996503;28;20251;-64
2022/07/23 05:27:34;;;;;;;14.75;7.60;;;;;;;30.08;38.93;95370.88;5000945;28;20203;-64
2022/07/23 05:30:01;;;;;;;11.27;7.40;;;;;;;31.30;36.81;95363.63;4999629;28;21602;-64
2022/07/23 05:32:28;;;;;;;13.80;8.30;;;;;;;33.28;33.59;95366.19;4999319;28;20203;-63
2022/07/23 05:34:55;;;;;;;8.23;7.65;;;;;;;34.83;30.90;95362.88;4996724;28;20207;-62
2022/07/23 05:37:21;;;;;;;7.95;7.03;;;;;;;36.55;28.16;95368.75;4997559;28;20211;-63
2022/07/23 05:39:50;;;;;;;13.20;6.85;;;;;;;37.53;26.83;95372.25;4999174;28;20260;-62
2022/07/23 05:42:17;;;;;;;9.27;8.48;;;;;;;38.19;25.67;95369.25;4997492;28;20207;-63
2022/07/23 05:44:44;;;;;;;9.77;7.40;;;;;;;39.22;24.26;95367.75;4998590;28;20454;-63
2022/07/23 05:47:10;;;;;;;8.40;7.70;;;;;;;39.81;22.72;95355.59;5000838;28;20206;-63
2022/07/23 05:49:38;;;;;;;15.15;8.20;;;;;;;40.38;22.35;95359.50;4999455;28;20211;-63
2022/07/23 05:52:06;;;;;;;12.82;8.15;;;;;;;40.73;22.20;95358.72;4997307;28;20627;-63
2022/07/23 05:54:35;;;;;;;13.80;8.02;;;;;;;39.10;23.61;95359.69;4998142;28;20207;-64
2022/07/23 05:57:04;;;;;;;8.40;7.63;;;;;;;38.15;24.25;95360.09;4999591;28;20202;-64
2022/07/23 05:59:30;;;;;;;8.63;7.90;;;;;;;37.87;24.84;95368.41;4996744;28;20218;-64
2022/07/23 06:01:57;;;;;;;8.98;8.07;;;;;;;38.29;24.60;95366.94;4996142;28;22293;-64
2022/07/23 06:04:24;;;;;;;24.13;18.40;;;;;;;38.58;24.10;95357.56;4999038;28;20210;-64
2022/07/23 06:06:51;;;;;;;9.45;8.68;;;;;;;38.52;24.29;95353.06;4998371;28;20208;-64
2022/07/23 06:09:18;;;;;;;9.55;7.15;;;;;;;37.24;26.43;95358.47;4997888;28;20207;-64
2022/07/23 06:11:44;;;;;;;8.15;7.57;;;;;;;37.36;25.84;95350.69;4997964;28;20630;-64
2022/07/23 06:14:12;;;;;;;10.68;7.80;;;;;;;37.63;25.55;95351.38;4999468;28;20210;-63
2022/07/23 06:16:39;;;;;;;9.68;7.90;;;;;;;36.66;26.99;95350.38;4998953;28;20210;-64
2022/07/23 06:19:06;;;;;;;8.48;7.65;;;;;;;37.31;25.66;95353.97;4998435;28;20717;-63
2022/07/23 06:21:33;;;;;;;8.68;7.63;;;;;;;37.66;25.50;95354.44;5002947;28;21437;-64
2022/07/23 06:23:59;;;;;;;9.55;8.60;;;;;;;38.04;25.09;95353.63;5000874;28;20207;-64
2022/07/23 06:26:26;;;;;;;9.75;7.72;;;;;;;37.41;26.11;95349.03;5001786;28;20199;-64
2022/07/23 06:28:53;;;;;;;9.48;7.72;;;;;;;37.76;25.62;95354.00;5003947;28;20215;-64
2022/07/23 06:31:21;;;;;;;10.68;9.65;;;;;;;37.46;26.31;95351.06;5002070;28;20239;-65
2022/07/23 06:33:48;;;;;;;11.77;8.90;;;;;;;36.35;26.73;95356.34;4999314;28;20206;-63
2022/07/23 06:36:15;;;;;;;16.58;10.65;;;;;;;36.52;27.62;95342.69;5002311;28;20708;-64
2022/07/23 06:38:42;;;;;;;33.67;17.85;;;;;;;36.63;27.33;95347.34;5003517;28;20214;-63
2022/07/23 06:41:08;;;;;;;12.38;9.00;;;;;;;36.44;27.34;95349.81;5002239;28;20210;-64
2022/07/23 06:43:35;;;;;;;11.57;8.75;;;;;;;35.85;28.65;95348.94;5002102;28;20304;-65
2022/07/23 06:46:02;;;;;;;12.63;10.68;;;;;;;35.61;29.24;95348.44;5000854;28;20207;-65
2022/07/23 06:48:30;;;;;;;12.40;9.25;;;;;;;35.36;29.37;95342.03;5002266;28;20228;-63
2022/07/23 06:50:57;;;;;;;13.35;8.68;;;;;;;35.16;29.03;95341.91;5002240;28;20222;-64
2022/07/23 06:53:23;;;;;;;16.00;9.95;;;;;;;35.32;28.77;95340.81;5001564;28;20203;-64
2022/07/23 06:55:50;;;;;;;13.18;8.88;;;;;;;34.60;30.30;95339.34;5001538;28;20214;-64
2022/07/23 06:58:19;;;;;;;14.73;8.57;;;;;;;33.93;31.20;95346.84;5002348;28;20207;-64
2022/07/23 07:00:46;;;;;;;15.07;9.25;;;;;;;33.91;31.50;95341.75;5003381;28;20230;-64
2022/07/23 07:03:13;;;;;;;12.32;8.93;;;;;;;33.74;30.82;95338.53;4999885;28;20233;-64
2022/07/23 07:05:41;;;;;;;12.82;9.55;;;;;;;33.65;31.73;95339.69;5001137;28;20241;-63
2022/07/23 07:08:08;;;;;;;16.35;9.57;;;;;;;33.53;32.38;95345.59;5003544;28;20207;-63
2022/07/23 07:10:34;;;;;;;14.30;8.65;;;;;;;33.12;31.74;95340.84;5003081;28;20285;-64
2022/07/23 07:13:01;;;;;;;13.43;8.57;;;;;;;32.56;33.09;95337.81;5002690;28;20291;-64
2022/07/23 07:15:28;;;;;;;17.25;8.27;;;;;;;32.42;33.12;95339.41;5000426;28;20690;-64
2022/07/23 07:17:55;;;;;;;9.70;8.82;;;;;;;32.23;33.00;95339.91;5002526;28;20214;-64
2022/07/23 07:20:21;;;;;;;9.18;7.82;;;;;;;32.49;32.86;95336.06;5002720;28;20198;-63
2022/07/23 07:22:50;;;;;;;12.05;8.70;;;;;;;32.52;32.87;95331.25;5003629;28;20669;-63
2022/07/23 07:25:17;;;;;;;15.48;8.20;;;;;;;32.31;32.49;95326.69;5001113;28;20203;-63
2022/07/23 07:27:44;;;;;;;10.65;8.10;;;;;;;32.29;32.71;95327.88;5003102;28;20211;-61
2022/07/23 07:30:12;;;;;;;14.45;7.35;;;;;;;32.18;32.74;95326.44;5001907;28;20290;-63
2022/07/23 07:32:40;;;;;;;26.58;18.45;;;;;;;32.63;32.87;95328.19;5000995;28;20231;-63
2022/07/23 07:35:08;;;;;;;18.42;8.52;;;;;;;32.93;32.21;95323.75;4999917;28;20272;-64
2022/07/23 07:37:35;;;;;;;8.68;7.53;;;;;;;33.08;31.87;95318.50;5002045;28;20219;-63
2022/07/23 07:40:03;;;;;;;13.23;8.38;;;;;;;33.23;31.75;95321.91;5002048;28;20289;-64
2022/07/23 07:42:31;;;;;;;14.30;8.32;;;;;;;33.38;31.65;95319.31;5003144;28;20235;-63
2022/07/23 07:44:58;;;;;;;13.32;8.88;;;;;;;33.61;31.14;95317.31;4999692;28;20758;-64
2022/07/23 07:47:25;;;;;;;9.82;8.77;;;;;;;33.69;31.08;95322.47;5001385;28;20214;-63
2022/07/23 07:49:52;;;;;;;10.98;8.63;;;;;;;33.48;31.25;95319.81;5002055;28;20210;-62
2022/07/23 07:52:19;;;;;;;15.30;8.10;;;;;;;33.51;31.17;95313.34;4999579;28;20238;-62
2022/07/23 07:54:46;;;;;;;9.55;7.35;;;;;;;33.62;30.99;95305.78;5001192;28;20211;-62
2022/07/23 07:57:14;;;;;;;10.98;7.35;;;;;;;33.83;31.21;95306.81;5001217;28;20214;-62
2022/07/23 07:59:41;;;;;;;10.63;7.53;;;;;;;33.58;30.75;95308.97;4999061;28;20219;-63
2022/07/23 08:02:08;;;;;;;13.85;8.82;;;;;;;33.42;31.11;95308.19;5001901;28;20206;-64
2022/07/23 08:04:34;;;;;;;9.30;7.60;;;;;;;33.43;31.38;95307.19;4999550;28;21003;-63
2022/07/23 08:07:01;;;;;;;8.38;7.30;;;;;;;33.10;31.36;95317.31;5002826;28;20277;-63
2022/07/23 08:09:28;;;;;;;10.35;7.30;;;;;;;33.05;31.60;95309.16;5002341;28;20207;-63
2022/07/23 08:11:55;;;;;;;11.88;7.95;;;;;;;33.26;31.80;95311.03;4999753;28;20264;-65
2022/07/23 08:14:23;;;;;;;14.05;8.05;;;;;;;33.44;31.21;95308.81;4999639;28;20654;-64
2022/07/23 08:16:49;;;;;;;16.52;8.07;;;;;;;33.69;31.40;95304.00;5000779;28;20773;-63
2022/07/23 08:19:16;;;;;;;19.38;9.32;;;;;;;33.81;31.75;95304.38;5002694;28;20204;-64
2022/07/23 08:21:43;;;;;;;16.42;8.40;;;;;;;33.68;31.42;95302.38;5000317;28;20203;-63
2022/07/23 08:24:10;;;;;;;13.95;8.90;;;;;;;33.71;30.98;95296.72;4999286;28;20599;-64
2022/07/23 08:26:36;;;;;;;10.30;8.57;;;;;;;33.65;31.12;95302.78;5001041;28;20356;-64
2022/07/23 08:29:03;;;;;;;13.45;8.68;;;;;;;33.54;31.55;95302.44;4999320;28;20265;-63
2022/07/23 08:31:32;;;;;;;14.48;8.15;;;;;;;33.64;31.45;95298.50;4999833;28;20289;-63
2022/07/23 08:33:59;;;;;;;16.27;8.05;;;;;;;33.63;31.19;95296.06;5000459;28;20202;-64
2022/07/23 08:36:27;;;;;;;15.25;7.72;;;;;;;33.44;31.62;95295.63;5000224;28;20227;-64
2022/07/23 08:38:54;;;;;;;13.57;8.50;;;;;;;33.60;31.19;95294.59;5000185;28;20226;-64
2022/07/23 08:41:21;;;;;;;22.25;12.35;;;;;;;33.74;31.14;95293.72;5000598;28;20209;-64
2022/07/23 08:43:48;;;;;;;12.80;9.77;;;;;;;33.67;31.30;95298.09;4998830;28;20232;-64
2022/07/23 08:46:15;;;;;;;12.57;7.78;;;;;;;33.54;31.79;95289.25;4998305;28;20209;-63
2022/07/23 08:48:43;;;;;;;16.73;10.38;;;;;;;33.60;31.71;95297.25;4999145;28;20207;-63
2022/07/23 08:51:11;;;;;;;14.48;9.02;;;;;;;33.60;31.33;95294.59;4998185;28;20243;-63
2022/07/23 08:53:38;;;;;;;14.25;8.27;;;;;;;33.54;31.94;95284.81;5000644;28;20610;-63
2022/07/23 08:56:06;;;;;;;15.15;10.73;;;;;;;33.63;31.51;95277.59;5000842;28;20262;-63
2022/07/23 08:58:33;;;;;;;16.85;11.27;;;;;;;33.76;32.25;95275.09;4999738;28;20743;-64
2022/07/23 09:01:00;;;;;;;11.55;8.10;;;;;;;33.86;31.00;95275.63;5000265;28;20458;-64
2022/07/23 09:03:29;;;;;;;19.77;14.15;;;;;;;33.88;31.11;95280.72;4999483;28;20692;-64
2022/07/23 09:06:01;;;;;;;10.30;7.63;;;;;;;34.10;30.24;95280.50;4999026;28;20234;-64
2022/07/23 09:08:36;;;;;;;13.02;8.35;;;;;;;34.05;29.68;95271.50;4998719;28;20204;-65
2022/07/23 09:11:05;;;;;;;11.20;7.32;;;;;;;34.03;30.42;95270.88;4999390;28;20278;-66
2022/07/23 09:13:36;;;;;;;11.02;7.50;;;;;;;33.75;30.79;95273.44;4999765;28;20218;-65
2022/07/23 09:16:05;;;;;;;19.27;8.75;;;;;;;33.94;30.81;95277.28;4999472;28;20759;-64
2022/07/23 09:18:34;;;;;;;35.70;21.08;;;;;;;34.21;31.06;95273.84;4998617;28;20294;-62
2022/07/23 09:21:17;;;;;;;43.85;29.88;;;;;;;34.44;30.73;95268.34;4997553;28;20276;-63
2022/07/23 09:23:46;;;;;;;27.58;19.35;;;;;;;34.46;30.44;95269.81;4999885;28;21458;-63
2022/07/23 09:26:30;;;;;;;12.77;7.88;;;;;;;34.25;30.32;95275.09;4998744;28;20242;-64
2022/07/23 09:29:03;;;;;;;13.30;7.88;;;;;;;34.29;29.70;95268.47;4997594;28;20203;-62
2022/07/23 09:31:42;;;;;;;13.30;7.30;;;;;;;34.19;29.44;95267.97;4996790;28;20979;-62
2022/07/23 09:34:11;;;;;;;15.02;8.25;;;;;;;34.29;29.84;95260.56;4999060;28;20206;-62
2022/07/23 09:36:40;;;;;;;16.55;7.97;;;;;;;34.32;29.70;95265.47;4999933;28;20206;-62
2022/07/23 09:39:07;;;;;;;16.67;13.02;;;;;;;34.42;30.37;95265.09;4997466;28;22286;-62
2022/07/23 09:41:40;;;;;;;15.95;9.68;;;;;;;34.64;29.86;95250.03;4998632;28;21653;-63
2022/07/23 09:44:12;;;;;;;19.05;9.70;;;;;;;34.83;28.44;95248.50;4997991;28;20203;-65
2022/07/23 09:46:40;;;;;;;12.63;7.82;;;;;;;34.83;27.42;95248.50;4999129;28;20218;-63
2022/07/23 09:49:16;;;;;;;12.82;6.88;;;;;;;34.74;27.09;95242.53;4993708;28;20214;-63
2022/07/23 09:51:54;;;;;;;8.02;6.57;;;;;;;34.72;26.47;95248.00;4998002;28;21158;-62
2022/07/23 09:54:27;;;;;;;11.07;6.55;;;;;;;34.77;26.59;95242.16;4995074;28;20881;-61
2022/07/23 09:56:55;;;;;;;19.02;6.88;;;;;;;34.82;25.74;95239.78;5002923;28;20603;-62
2022/07/23 09:59:25;;;;;;;10.82;7.28;;;;;;;34.95;27.29;95239.00;5000602;28;20214;-62
2022/07/23 10:01:55;;;;;;;13.27;7.00;;;;;;;35.14;26.55;95239.06;5002963;28;20204;-63
2022/07/23 10:04:23;;;;;;;12.82;11.50;;;;;;;35.34;26.78;95238.34;5002475;28;20195;-62
2022/07/23 10:06:55;;;;;;;11.38;7.85;;;;;;;35.43;26.69;95231.84;5003795;28;20211;-63
2022/07/23 10:09:28;;;;;;;14.68;7.40;;;;;;;35.32;26.10;95230.63;5003080;28;20296;-64
2022/07/23 10:12:05;;;;;;;14.77;7.18;;;;;;;35.49;25.72;95228.41;5001355;28;21179;-63
2022/07/23 10:14:33;;;;;;;12.75;7.50;;;;;;;35.43;25.99;95227.38;5001624;28;20225;-63
2022/07/23 10:17:01;;;;;;;6.10;5.50;;;;;;;35.43;25.35;95223.94;5000520;28;20292;-63
2022/07/23 10:19:28;;;;;;;14.10;7.53;;;;;;;35.34;24.52;95218.03;4997235;28;20211;-63
2022/07/23 10:22:00;;;;;;;8.75;6.30;;;;;;;35.32;24.61;95217.41;5002287;28;20260;-63
2022/07/23 10:24:45;;;;;;;8.98;6.00;;;;;;;35.35;24.78;95218.84;5003406;28;20228;-63
2022/07/23 10:27:32;;;;;;;6.78;5.90;;;;;;;35.38;24.59;95213.97;5003425;28;20225;-63
2022/07/23 10:30:04;;;;;;;14.18;6.72;;;;;;;35.38;23.66;95213.97;5002006;28;20373;-64
2022/07/23 10:32:41;;;;;;;7.47;6.55;;;;;;;35.32;24.37;95217.41;4998917;28;20223;-67
2022/07/23 10:35:16;;;;;;;12.38;6.05;;;;;;;35.36;23.84;95207.25;5002455;28;20218;-63
2022/07/23 10:37:49;;;;;;;13.45;5.55;;;;;;;35.18;23.89;95212.25;5001692;28;20589;-62
2022/07/23 10:40:18;;;;;;;6.35;5.82;;;;;;;35.17;24.42;95205.34;4999372;28;20211;-62
2022/07/23 10:42:46;;;;;;;9.23;6.00;;;;;;;35.33;24.15;95200.56;5002658;28;20206;-62
2022/07/23 10:45:31;;;;;;;10.82;6.25;;;;;;;35.47;23.73;95196.09;5002571;28;20578;-63
2022/07/23 10:48:14;;;;;;;8.80;7.22;;;;;;;35.40;23.72;95195.25;5001728;28;20276;-62
2022/07/23 10:50:42;;;;;;;9.43;6.40;;;;;;;35.46;22.25;95195.28;5001092;28;20214;-62
2022/07/23 10:53:13;;;;;;;7.93;6.20;;;;;;;35.36;22.34;95196.69;5001589;28;20230;-62
2022/07/23 10:55:43;;;;;;;10.82;5.55;;;;;;;35.36;22.54;95194.88;5001770;28;20730;-62
2022/07/23 10:58:10;;;;;;;6.40;5.80;;;;;;;35.47;22.21;95188.16;5002829;28;20676;-63
2022/07/23 11:00:38;;;;;;;17.50;5.90;;;;;;;35.66;21.40;95183.88;5002284;28;21538;-62
2022/07/23 11:03:07;;;;;;;16.15;5.60;;;;;;;35.74;20.08;95184.50;5003553;28;20211;-62
2022/07/23 11:05:42;;;;;;;9.80;5.40;;;;;;;35.87;18.92;95181.09;4998868;28;20276;-64
2022/07/23 11:08:17;;;;;;;9.35;6.30;;;;;;;34.83;20.01;95175.41;5000931;28;20274;-62
2022/07/23 11:10:46;;;;;;;10.50;5.75;;;;;;;34.61;19.53;95164.13;5000071;28;20779;-63
2022/07/23 11:13:45;;;;;;;8.90;5.55;;;;;;;34.96;20.54;95167.50;5003610;28;20237;-64
2022/07/23 11:16:20;;;;;;;15.75;7.15;;;;;;;35.06;21.08;95169.78;5007878;28;20204;-64
2022/07/23 11:19:06;;;;;;;9.32;6.18;;;;;;;35.36;20.75;95152.59;5009863;28;20697;-63
2022/07/23 11:21:50;;;;;;;12.60;6.70;;;;;;;35.44;19.92;95149.72;5010424;28;20292;-63
2022/07/23 11:24:21;;;;;;;10.45;5.63;;;;;;;35.55;20.08;95148.31;5009944;28;20196;-63
2022/07/23 11:26:56;;;;;;;16.60;5.70;;;;;;;35.43;19.33;95148.09;5010501;28;20652;-64
2022/07/23 11:29:42;;;;;;;12.95;6.07;;;;;;;35.73;20.59;95145.03;5011152;28;20208;-63
2022/07/23 11:32:20;;;;;;;9.85;5.75;;;;;;;35.92;20.49;95151.34;5011018;28;20229;-63
2022/07/23 11:34:48;;;;;;;14.88;5.90;;;;;;;36.03;19.90;95140.97;5011296;28;20207;-64